Time;durP1;ratioP1;P1;durP2;ratioP2;P2;SDS_P1;SDS_P2;PMS_P1;PMS_P2;Temp;Humidity;BMP_temperature;BMP_pressure;BME280_temperature;BME280_humidity;BME280_pressure;Samples;Min_cycle;Max_cycle;Signal;HPM_P1;HPM_P2
2022/10/27 00:00:39;;;;;;;0.10;0.10;;;12.10;99.90;;;;;;4952213;28;20046;-73
2022/10/27 00:03:04;;;;;;;0.08;0.03;;;12.10;99.90;;;;;;4949706;28;20039;-73
2022/10/27 00:05:30;;;;;;;0.00;0.00;;;12.10;99.90;;;;;;4954384;28;20035;-73
2022/10/27 00:07:57;;;;;;;0.20;0.20;;;12.00;99.90;;;;;;4952984;28;20029;-73
2022/10/27 00:10:22;;;;;;;;;;;11.90;99.90;;;;;;4948172;28;21056;-73
2022/10/27 00:12:55;;;;;;;0.52;0.25;;;11.80;99.90;;;;;;4952564;28;19914;-73
2022/10/27 00:15:25;;;;;;;0.65;0.52;;;11.70;99.90;;;;;;4949681;28;20034;-73
2022/10/27 00:17:50;;;;;;;0.00;0.00;;;11.70;99.90;;;;;;4956156;28;20046;-73
2022/10/27 00:20:16;;;;;;;0.00;0.00;;;11.60;99.90;;;;;;4951751;28;20030;-73
2022/10/27 00:22:42;;;;;;;0.00;0.00;;;11.50;99.90;;;;;;4954152;28;20024;-73
2022/10/27 00:25:08;;;;;;;0.30;0.30;;;11.50;99.90;;;;;;4957287;28;20027;-73
2022/10/27 00:27:33;;;;;;;0.00;0.00;;;11.50;99.90;;;;;;4953166;28;20301;-72
2022/10/27 00:30:02;;;;;;;0.00;0.00;;;11.50;99.90;;;;;;4975895;28;20388;-73
2022/10/27 00:32:28;;;;;;;0.00;0.00;;;11.50;99.90;;;;;;4951968;28;20762;-73
2022/10/27 00:34:55;;;;;;;0.00;0.00;;;11.60;99.90;;;;;;4949900;28;20078;-73
2022/10/27 00:37:24;;;;;;;0.00;0.00;;;11.60;99.90;;;;;;4952272;28;20216;-72
2022/10/27 00:39:51;;;;;;;0.15;0.15;;;11.60;99.90;;;;;;4948381;28;20022;-73
2022/10/27 00:42:16;;;;;;;;;;;11.70;99.90;;;;;;4953681;28;20681;-72
2022/10/27 00:44:46;;;;;;;0.00;0.00;;;11.70;99.90;;;;;;4948829;28;20084;-72
2022/10/27 00:47:25;;;;;;;0.10;0.10;;;11.70;99.90;;;;;;4950528;28;20031;-73
2022/10/27 00:49:56;;;;;;;0.00;0.00;;;11.60;99.90;;;;;;4953551;28;20042;-73
2022/10/27 00:52:25;;;;;;;0.00;0.00;;;11.70;99.90;;;;;;4949418;28;20069;-73
2022/10/27 00:54:51;;;;;;;0.05;0.05;;;11.70;99.90;;;;;;4946222;28;20109;-73
2022/10/27 00:57:18;;;;;;;0.10;0.10;;;11.80;99.90;;;;;;4951472;28;20038;-73
2022/10/27 00:59:44;;;;;;;;;;;11.90;99.90;;;;;;4954908;28;20031;-73
2022/10/27 01:02:16;;;;;;;;;;;11.70;99.90;;;;;;4951537;28;19914;-73
2022/10/27 01:04:48;;;;;;;;;;;11.60;99.90;;;;;;4972470;28;19914;-72
2022/10/27 01:07:15;;;;;;;;;;;11.50;99.90;;;;;;4952731;28;19909;-72
2022/10/27 01:09:42;;;;;;;;;;;11.40;99.90;;;;;;4952639;28;19913;-73
2022/10/27 01:12:10;;;;;;;;;;;11.30;99.90;;;;;;4955293;28;19937;-73
2022/10/27 01:14:37;;;;;;;;;;;11.30;99.90;;;;;;4951037;28;19921;-73
2022/10/27 01:17:03;;;;;;;;;;;11.30;99.90;;;;;;4946599;28;19921;-73
2022/10/27 01:19:31;;;;;;;;;;;11.30;99.90;;;;;;4952573;28;19914;-74
2022/10/27 01:22:08;;;;;;;;;;;11.30;99.90;;;;;;4946143;28;19910;-73
2022/10/27 01:24:37;;;;;;;;;;;11.30;99.90;;;;;;4961483;28;20267;-73
2022/10/27 01:27:21;;;;;;;;;;;11.30;99.90;;;;;;4945377;28;19917;-73
2022/10/27 01:29:53;;;;;;;;;;;11.30;99.90;;;;;;4972007;28;19906;-73
2022/10/27 01:32:18;;;;;;;;;;;11.30;99.90;;;;;;4948766;28;19937;-74
2022/10/27 01:34:46;;;;;;;;;;;11.40;99.90;;;;;;4952270;28;20379;-73
2022/10/27 01:37:14;;;;;;;;;;;11.30;99.90;;;;;;4955155;28;20628;-73
2022/10/27 01:39:50;;;;;;;;;;;11.30;99.90;;;;;;4951487;28;19913;-72
2022/10/27 01:42:26;;;;;;;;;;;11.30;99.90;;;;;;4946658;28;19914;-74
2022/10/27 01:44:53;;;;;;;;;;;11.30;99.90;;;;;;4953154;28;19910;-74
2022/10/27 01:47:20;;;;;;;;;;;11.30;99.90;;;;;;4945345;28;19913;-73
2022/10/27 01:49:45;;;;;;;;;;;11.30;99.90;;;;;;4947943;28;20347;-73
2022/10/27 01:54:59;;;;;;;;;;;11.30;99.90;;;;;;4949955;28;19917;-73
2022/10/27 01:57:33;;;;;;;;;;;11.30;99.90;;;;;;4947323;28;19913;-73
2022/10/27 02:00:01;;;;;;;;;;;11.20;99.90;;;;;;4972683;28;19968;-73
2022/10/27 02:02:33;;;;;;;;;;;11.30;99.90;;;;;;4953335;28;19989;-73
2022/10/27 02:05:08;;;;;;;;;;;11.30;99.90;;;;;;4955942;28;19934;-73
2022/10/27 02:07:40;;;;;;;;;;;11.30;99.90;;;;;;4941071;28;19914;-72
2022/10/27 02:10:06;;;;;;;;;;;11.30;99.90;;;;;;4953329;28;19957;-73
2022/10/27 02:12:37;;;;;;;;;;;11.40;99.90;;;;;;4950961;28;19942;-73
2022/10/27 02:15:06;;;;;;;;;;;11.30;99.90;;;;;;4951639;28;19933;-73
2022/10/27 02:17:38;;;;;;;;;;;11.40;99.90;;;;;;4953422;28;20682;-73
2022/10/27 02:20:06;;;;;;;;;;;11.40;99.90;;;;;;4942840;28;20382;-73
2022/10/27 02:22:34;;;;;;;;;;;11.40;99.90;;;;;;4945095;28;19917;-73
2022/10/27 02:24:59;;;;;;;;;;;11.40;99.90;;;;;;4948266;28;19922;-73
2022/10/27 02:27:40;;;;;;;;;;;11.40;99.90;;;;;;4948759;28;19914;-73
2022/10/27 02:30:07;;;;;;;;;;;11.40;99.90;;;;;;4953285;28;19945;-73
2022/10/27 02:32:33;;;;;;;;;;;11.30;99.90;;;;;;4948654;28;19918;-73
2022/10/27 02:35:00;;;;;;;;;;;11.40;99.90;;;;;;4943967;28;19965;-74
2022/10/27 02:37:27;;;;;;;;;;;11.20;99.90;;;;;;4951038;28;19910;-74
2022/10/27 02:39:53;;;;;;;;;;;11.10;99.90;;;;;;4948335;28;19938;-73
2022/10/27 02:42:19;;;;;;;;;;;11.10;99.90;;;;;;4949082;28;19910;-73
2022/10/27 02:44:44;;;;;;;;;;;11.10;99.90;;;;;;4950054;28;19913;-72
2022/10/27 02:47:11;;;;;;;;;;;11.10;99.90;;;;;;4940935;28;20423;-73
2022/10/27 02:49:45;;;;;;;;;;;11.10;99.90;;;;;;4953174;28;20029;-74
2022/10/27 02:52:11;;;;;;;;;;;11.10;99.90;;;;;;4978299;28;19993;-73
2022/10/27 02:54:36;;;;;;;;;;;11.10;99.90;;;;;;4952085;28;20022;-73
2022/10/27 02:57:03;;;;;;;;;;;11.20;99.90;;;;;;4952985;28;20008;-73
2022/10/27 02:59:29;;;;;;;;;;;11.20;99.90;;;;;;4945974;28;19980;-73
2022/10/27 03:01:56;;;;;;;;;;;11.20;99.90;;;;;;4948728;28;19913;-73
2022/10/27 03:04:22;;;;;;;;;;;11.20;99.90;;;;;;4957403;28;19949;-72
2022/10/27 03:06:49;;;;;;;;;;;11.20;99.90;;;;;;4955238;28;19906;-72
2022/10/27 03:09:16;;;;;;;;;;;11.20;99.90;;;;;;4960128;28;19906;-73
2022/10/27 03:11:41;;;;;;;;;;;11.30;99.90;;;;;;4956392;28;19913;-73
2022/10/27 03:14:07;;;;;;;;;;;11.30;99.90;;;;;;4953730;28;19910;-73
2022/10/27 03:16:35;;;;;;;;;;;11.30;99.90;;;;;;4949356;28;19914;-73
2022/10/27 03:19:02;;;;;;;;;;;11.30;99.90;;;;;;4955362;28;19949;-73
2022/10/27 03:21:27;;;;;;;;;;;11.30;99.90;;;;;;4952001;28;19906;-72
2022/10/27 03:23:55;;;;;;;;;;;11.30;99.90;;;;;;4953504;28;19906;-73
2022/10/27 03:26:24;;;;;;;;;;;11.30;99.90;;;;;;4953402;28;19956;-73
2022/10/27 03:28:52;;;;;;;;;;;11.30;99.90;;;;;;4957773;28;19969;-74
2022/10/27 03:31:18;;;;;;;;;;;11.30;99.90;;;;;;4956583;28;19906;-73
2022/10/27 03:33:45;;;;;;;;;;;11.30;99.90;;;;;;4946840;28;19946;-73
2022/10/27 03:36:14;;;;;;;;;;;11.30;99.90;;;;;;4953002;28;19960;-73
2022/10/27 03:38:39;;;;;;;;;;;11.30;99.90;;;;;;4956975;28;19954;-73
2022/10/27 03:41:05;;;;;;;;;;;11.30;99.90;;;;;;4952718;28;20032;-73
2022/10/27 03:43:30;;;;;;;;;;;11.30;99.90;;;;;;4954258;28;19914;-73
2022/10/27 03:45:56;;;;;;;;;;;11.30;99.90;;;;;;4946665;28;19910;-73
2022/10/27 03:48:24;;;;;;;;;;;11.30;99.90;;;;;;4953963;28;20367;-73
2022/10/27 03:50:55;;;;;;;;;;;11.30;99.90;;;;;;4945159;28;19914;-73
2022/10/27 03:53:21;;;;;;;;;;;11.30;99.90;;;;;;4952004;28;19910;-73
2022/10/27 03:55:48;;;;;;;;;;;11.20;99.90;;;;;;4973315;28;19917;-73
2022/10/27 03:58:14;;;;;;;;;;;11.20;99.90;;;;;;4955017;28;19996;-73
2022/10/27 04:00:42;;;;;;;;;;;11.20;99.90;;;;;;4949921;28;19914;-73
2022/10/27 04:03:07;;;;;;;;;;;11.20;99.90;;;;;;4951973;28;19918;-73
2022/10/27 04:05:33;;;;;;;;;;;11.30;99.90;;;;;;4950211;28;19921;-74
2022/10/27 04:08:00;;;;;;;;;;;11.20;99.90;;;;;;4944658;28;20549;-74
2022/10/27 04:10:26;;;;;;;;;;;11.20;99.90;;;;;;4951450;28;20001;-73
2022/10/27 04:12:55;;;;;;;;;;;11.20;99.90;;;;;;4954174;28;20001;-74
2022/10/27 04:15:21;;;;;;;;;;;11.20;99.90;;;;;;4953820;28;20004;-73
2022/10/27 04:17:51;;;;;;;;;;;11.20;99.90;;;;;;4954965;28;20052;-73
2022/10/27 04:20:18;;;;;;;;;;;11.20;99.90;;;;;;4957960;28;19957;-73
2022/10/27 04:22:44;;;;;;;;;;;11.20;99.90;;;;;;4953312;28;19913;-73
2022/10/27 04:25:10;;;;;;;;;;;11.20;99.90;;;;;;4953041;28;19906;-73
2022/10/27 04:27:39;;;;;;;;;;;11.20;99.90;;;;;;4947970;28;19918;-74
2022/10/27 04:30:04;;;;;;;;;;;11.10;99.90;;;;;;4951620;28;19914;-73
2022/10/27 04:32:31;;;;;;;;;;;11.00;99.90;;;;;;4947894;28;20469;-73
2022/10/27 04:34:58;;;;;;;;;;;11.10;99.90;;;;;;4980206;28;19921;-73
2022/10/27 04:37:25;;;;;;;;;;;11.10;99.90;;;;;;4969875;28;19910;-72
2022/10/27 04:39:52;;;;;;;;;;;11.10;99.90;;;;;;4952848;28;19933;-72
2022/10/27 04:42:19;;;;;;;;;;;11.10;99.90;;;;;;4954193;28;19917;-72
2022/10/27 04:44:46;;;;;;;;;;;11.10;99.90;;;;;;4952438;28;19953;-73
2022/10/27 04:47:13;;;;;;;;;;;11.20;99.90;;;;;;4970775;28;19914;-73
2022/10/27 04:49:40;;;;;;;;;;;11.20;99.90;;;;;;4949395;28;19961;-73
2022/10/27 04:52:06;;;;;;;;;;;11.20;99.90;;;;;;4951076;28;19929;-73
2022/10/27 04:54:32;;;;;;;;;;;11.20;99.90;;;;;;4953391;28;20336;-75
2022/10/27 04:56:58;;;;;;;;;;;11.20;99.90;;;;;;4955708;28;19997;-75
2022/10/27 04:59:25;;;;;;;;;;;11.10;99.90;;;;;;4949934;28;19917;-75
2022/10/27 05:01:54;;;;;;;;;;;11.10;99.90;;;;;;4953543;28;20065;-74
2022/10/27 05:04:24;;;;;;;;;;;11.10;99.90;;;;;;4949363;28;19976;-74
2022/10/27 05:06:50;;;;;;;;;;;11.10;99.90;;;;;;4946416;28;20363;-74
2022/10/27 05:09:20;;;;;;;;;;;11.10;99.90;;;;;;4950342;28;19906;-74
2022/10/27 05:11:51;;;;;;;;;;;11.10;99.90;;;;;;4953430;28;19953;-74
2022/10/27 05:14:18;;;;;;;;;;;11.10;99.90;;;;;;4944358;28;19918;-74
2022/10/27 05:16:45;;;;;;;;;;;11.10;99.90;;;;;;4953229;28;19933;-74
2022/10/27 05:19:11;;;;;;;;;;;11.10;99.90;;;;;;4952500;28;19914;-74
2022/10/27 05:21:37;;;;;;;;;;;11.20;99.90;;;;;;4949696;28;19945;-75
2022/10/27 05:24:03;;;;;;;;;;;11.20;99.90;;;;;;4970245;28;19910;-74
2022/10/27 05:26:30;;;;;;;;;;;11.20;99.90;;;;;;4953477;28;19921;-73
2022/10/27 05:28:55;;;;;;;;;;;11.10;99.90;;;;;;4947760;28;19994;-74
2022/10/27 05:31:27;;;;;;;;;;;11.20;99.90;;;;;;4951460;28;19907;-74
2022/10/27 05:33:53;;;;;;;;;;;11.20;99.90;;;;;;4956235;28;19907;-74
2022/10/27 05:36:22;;;;;;;;;;;11.20;99.90;;;;;;4950989;28;20304;-72
2022/10/27 05:38:48;;;;;;;;;;;11.30;99.90;;;;;;4943742;28;19917;-73
2022/10/27 05:41:17;;;;;;;;;;;11.30;99.90;;;;;;4949302;28;19906;-73
2022/10/27 05:43:47;;;;;;;;;;;11.30;99.90;;;;;;4950674;28;19910;-73
2022/10/27 05:46:16;;;;;;;;;;;11.30;99.90;;;;;;4953278;28;19917;-74
2022/10/27 05:48:42;;;;;;;;;;;11.30;99.90;;;;;;4944597;28;19915;-75
2022/10/27 05:51:10;;;;;;;;;;;11.40;99.90;;;;;;4950892;28;20304;-74
2022/10/27 05:53:41;;;;;;;;;;;11.40;99.90;;;;;;4955328;28;19914;-74
2022/10/27 05:56:09;;;;;;;;;;;11.60;99.90;;;;;;4949195;28;19922;-75
2022/10/27 05:58:35;;;;;;;;;;;12.00;99.90;;;;;;4953589;28;19914;-74
2022/10/27 06:01:01;;;;;;;;;;;12.40;99.90;;;;;;4952202;28;19918;-74
2022/10/27 06:03:29;;;;;;;;;;;12.70;99.90;;;;;;4951439;28;19911;-75
2022/10/27 06:05:55;;;;;;;;;;;13.00;99.90;;;;;;4946599;28;19906;-75
2022/10/27 06:08:23;;;;;;;;;;;13.50;99.90;;;;;;4957581;28;19912;-74
2022/10/27 06:10:50;;;;;;;;;;;13.80;99.90;;;;;;4979585;28;20520;-75
2022/10/27 06:13:18;;;;;;;;;;;14.10;99.90;;;;;;4951622;28;19906;-74
2022/10/27 06:15:43;;;;;;;;;;;14.50;99.90;;;;;;4949717;28;19910;-75
2022/10/27 06:18:12;;;;;;;;;;;14.90;99.90;;;;;;4947625;28;19913;-75
2022/10/27 06:20:43;;;;;;;;;;;15.40;99.90;;;;;;4955597;28;19910;-75
2022/10/27 06:23:09;;;;;;;;;;;15.80;99.90;;;;;;4947933;28;20430;-75
2022/10/27 06:25:35;;;;;;;;;;;16.40;99.90;;;;;;4956850;28;19993;-75
2022/10/27 06:28:02;;;;;;;;;;;17.10;99.90;;;;;;4958715;28;19910;-75
2022/10/27 06:30:29;;;;;;;;;;;17.40;99.90;;;;;;4942982;28;20001;-75
2022/10/27 06:32:55;;;;;;;;;;;17.80;99.90;;;;;;4949359;28;20911;-75
2022/10/27 06:35:25;;;;;;;;;;;18.10;99.90;;;;;;4952832;28;19914;-75
2022/10/27 06:37:50;;;;;;;;;;;18.20;99.90;;;;;;4941842;28;19933;-75
2022/10/27 06:40:17;;;;;;;;;;;18.50;99.90;;;;;;4950665;28;20347;-75
2022/10/27 06:42:43;;;;;;;;;;;18.60;99.90;;;;;;4950114;28;19917;-75
2022/10/27 06:45:10;;;;;;;;;;;18.80;99.90;;;;;;4972251;28;19910;-75
2022/10/27 06:47:36;;;;;;;;;;;19.00;99.90;;;;;;4956517;28;19929;-75
2022/10/27 06:50:05;;;;;;;;;;;19.10;99.90;;;;;;4950189;28;19914;-76
2022/10/27 06:52:34;;;;;;;;;;;18.80;99.90;;;;;;4954690;28;19910;-75
2022/10/27 06:55:00;;;;;;;;;;;18.90;99.90;;;;;;4957666;28;19921;-75
2022/10/27 06:57:26;;;;;;;;;;;19.40;99.90;;;;;;4974214;28;19913;-75
2022/10/27 06:59:54;;;;;;;;;;;19.90;99.90;;;;;;4953500;28;19925;-74
2022/10/27 07:02:21;;;;;;;;;;;20.30;99.90;;;;;;4953016;28;19910;-75
2022/10/27 07:04:50;;;;;;;;;;;20.50;99.90;;;;;;4954287;28;19906;-76
2022/10/27 07:07:16;;;;;;;;;;;20.70;99.90;;;;;;4953022;28;19910;-76
2022/10/27 07:09:48;;;;;;;;;;;20.80;99.90;;;;;;4954092;28;20073;-76
2022/10/27 07:12:23;;;;;;;;;;;22.00;99.90;;;;;;4959934;28;19902;-75
2022/10/27 07:14:52;;;;;;;;;;;22.60;99.90;;;;;;4956106;28;19956;-76
2022/10/27 07:17:18;;;;;;;;;;;22.20;99.90;;;;;;4944054;28;19910;-76
2022/10/27 07:19:45;;;;;;;;;;;21.40;99.90;;;;;;4948285;28;19906;-77
2022/10/27 07:22:11;;;;;;;;;;;21.20;99.90;;;;;;4952816;28;19906;-75
2022/10/27 07:24:38;;;;;;;;;;;21.40;99.90;;;;;;4957372;28;19918;-76
2022/10/27 07:27:06;;;;;;;;;;;21.60;99.90;;;;;;4960569;28;19910;-76
2022/10/27 07:29:36;;;;;;;;;;;21.20;99.90;;;;;;4949464;28;19910;-76
2022/10/27 07:32:07;;;;;;;;;;;21.70;99.90;;;;;;4956958;28;19925;-77
2022/10/27 07:34:33;;;;;;;;;;;21.70;99.90;;;;;;4951576;28;19972;-71
2022/10/27 07:36:59;;;;;;;;;;;21.90;99.90;;;;;;4953535;28;19910;-72
2022/10/27 07:39:24;;;;;;;;;;;21.60;99.90;;;;;;4947659;28;19914;-70
2022/10/27 07:41:51;;;;;;;;;;;21.10;99.90;;;;;;4949948;28;20311;-72
2022/10/27 07:44:16;;;;;;;;;;;20.90;99.90;;;;;;4945058;28;19918;-72
2022/10/27 07:46:42;;;;;;;;;;;21.60;99.90;;;;;;4953138;28;19914;-72
2022/10/27 07:49:07;;;;;;;;;;;22.40;99.90;;;;;;4954755;28;19937;-72
2022/10/27 07:51:33;;;;;;;;;;;22.50;99.90;;;;;;4947382;28;19910;-71
2022/10/27 07:53:58;;;;;;;;;;;23.30;99.90;;;;;;4954341;28;19917;-72
2022/10/27 07:56:24;;;;;;;;;;;23.80;99.60;;;;;;4954980;28;19973;-72
2022/10/27 07:58:49;;;;;;;;;;;24.20;98.80;;;;;;4953120;28;19953;-72
2022/10/27 08:01:15;;;;;;;;;;;23.10;99.40;;;;;;4948151;28;19910;-72
2022/10/27 08:03:41;;;;;;;;;;;23.00;99.90;;;;;;4955427;28;19917;-72
2022/10/27 08:06:07;;;;;;;;;;;23.50;99.70;;;;;;4952659;28;19918;-72
2022/10/27 08:08:33;;;;;;;;;;;24.60;98.40;;;;;;4951446;28;20391;-71
2022/10/27 08:10:58;;;;;;;;;;;24.80;97.80;;;;;;4949700;28;20583;-71
2022/10/27 08:13:25;;;;;;;;;;;24.70;97.40;;;;;;4951936;28;20055;-71
2022/10/27 08:15:51;;;;;;;;;;;24.20;97.40;;;;;;4953943;28;19937;-71
2022/10/27 08:18:16;;;;;;;;;;;22.90;99.70;;;;;;4952132;28;19909;-72
2022/10/27 08:20:43;;;;;;;;;;;24.70;97.60;;;;;;4951483;28;20407;-72
2022/10/27 08:23:11;;;;;;;;;;;25.20;96.30;;;;;;4953271;28;19906;-72
2022/10/27 08:25:39;;;;;;;;;;;25.80;95.30;;;;;;4947842;28;19917;-72
2022/10/27 08:28:05;;;;;;;;;;;25.60;95.20;;;;;;4946457;28;19921;-72
2022/10/27 08:30:35;;;;;;;;;;;26.20;93.80;;;;;;4950375;28;20253;-77
2022/10/27 08:33:22;;;;;;;;;;;27.10;93.00;;;;;;4953442;28;19961;-77
2022/10/27 08:35:51;;;;;;;;;;;27.10;92.30;;;;;;4979165;28;19917;-78
2022/10/27 08:38:17;;;;;;;;;;;27.30;90.90;;;;;;4945327;28;19917;-78
2022/10/27 08:41:04;;;;;;;;;;;28.10;89.50;;;;;;4953418;28;20323;-77
2022/10/27 08:43:51;;;;;;;;;;;28.20;87.40;;;;;;4952089;28;19910;-77
2022/10/27 08:46:25;;;;;;;;;;;27.80;87.00;;;;;;4951677;28;19917;-77
2022/10/27 08:48:53;;;;;;;;;;;27.70;86.50;;;;;;4945838;28;19997;-80
2022/10/27 08:51:21;;;;;;;;;;;28.70;84.90;;;;;;4948936;28;19906;-80
2022/10/27 08:53:48;;;;;;;;;;;29.60;81.50;;;;;;4957262;28;19920;-79
2022/10/27 08:56:16;;;;;;;;;;;28.60;81.60;;;;;;4948759;28;19925;-77
2022/10/27 08:58:44;;;;;;;;;;;27.70;84.40;;;;;;4956197;28;20265;-77
2022/10/27 09:01:29;;;;;;;;;;;27.70;84.10;;;;;;4948881;28;19954;-77
2022/10/27 09:04:06;;;;;;;;;;;28.70;81.80;;;;;;4948581;28;19917;-77
2022/10/27 09:06:40;;;;;;;;;;;27.70;81.80;;;;;;4951036;28;19914;-77
2022/10/27 09:09:14;;;;;;;;;;;26.00;84.30;;;;;;4954088;28;19910;-77
2022/10/27 09:11:47;;;;;;;;;;;24.50;88.40;;;;;;4948568;28;19910;-77
2022/10/27 09:14:16;;;;;;;;;;;24.40;91.30;;;;;;4957228;28;19910;-77
2022/10/27 09:16:45;;;;;;;;;;;24.90;90.50;;;;;;4962565;28;19910;-77
2022/10/27 09:19:20;;;;;;;;;;;25.70;89.50;;;;;;4951405;28;19953;-77
2022/10/27 09:21:51;;;;;;;;;;;26.90;87.70;;;;;;4958656;28;20001;-76
2022/10/27 09:24:18;;;;;;;;;;;27.50;85.50;;;;;;4942747;28;19913;-77
2022/10/27 09:26:47;;;;;;;;;;;25.90;87.60;;;;;;4945753;28;19906;-77
2022/10/27 09:29:18;;;;;;;;;;;27.90;85.90;;;;;;4978089;28;19925;-77
2022/10/27 09:31:48;;;;;;;;;;;27.30;83.40;;;;;;4951682;28;19906;-77
2022/10/27 09:34:32;;;;;;;;;;;27.70;83.50;;;;;;4951552;28;19993;-77
2022/10/27 09:37:15;;;;;;;;;;;27.70;82.20;;;;;;4951557;28;19910;-77
2022/10/27 09:39:50;;;;;;;;;;;28.10;82.30;;;;;;4952866;28;19929;-78
2022/10/27 09:42:22;;;;;;;;;;;29.30;79.80;;;;;;4947252;28;19930;-79
2022/10/27 09:45:24;;;;;;;;;;;29.60;78.30;;;;;;4975852;28;19961;-79
2022/10/27 09:48:02;;;;;;;;;;;30.10;77.40;;;;;;4896329;29;19934;-79
2022/10/27 09:50:44;;;;;;;;;;;31.20;76.10;;;;;;4943741;28;20021;-80
2022/10/27 09:53:28;;;;;;;;;;;31.30;73.10;;;;;;4953988;28;19930;-81
2022/10/27 09:55:57;;;;;;;;;;;31.80;70.50;;;;;;4978501;28;20041;-79
2022/10/27 09:58:28;;;;;;;;;;;29.90;73.50;;;;;;4948593;28;19907;-80
2022/10/27 10:01:09;;;;;;;;;;;30.30;73.80;;;;;;4949510;28;19969;-79
2022/10/27 10:03:35;;;;;;;;;;;31.00;72.30;;;;;;4941897;28;19918;-81
2022/10/27 10:06:02;;;;;;;;;;;31.20;72.00;;;;;;4945974;28;19926;-79
2022/10/27 10:08:40;;;;;;;;;;;29.70;71.00;;;;;;4943189;28;19960;-79
2022/10/27 10:11:19;;;;;;;;;;;30.40;71.90;;;;;;4947240;28;19917;-79
2022/10/27 10:13:58;;;;;;;;;;;30.80;71.30;;;;;;4944623;28;19910;-79
2022/10/27 10:16:27;;;;;;;;;;;31.30;70.70;;;;;;4950833;28;20343;-79
2022/10/27 10:19:00;;;;;;;;;;;30.20;71.70;;;;;;4948391;28;20316;-80
2022/10/27 10:21:29;;;;;;;;;;;29.70;72.00;;;;;;4954779;28;20005;-77
2022/10/27 10:24:00;;;;;;;;;;;28.60;73.30;;;;;;4950012;28;19910;-78
2022/10/27 10:26:28;;;;;;;;;;;29.90;72.40;;;;;;4950753;28;19921;-77
2022/10/27 10:28:59;;;;;;;;;;;30.70;70.90;;;;;;4946040;28;19914;-77
2022/10/27 10:31:27;;;;;;;;;;;30.60;71.60;;;;;;4950042;28;19952;-77
2022/10/27 10:33:54;;;;;;;;;;;30.10;71.10;;;;;;4958571;28;19969;-76
2022/10/27 10:36:19;;;;;;;;;;;30.70;70.90;;;;;;4944947;28;19910;-78
2022/10/27 10:38:48;;;;;;;;;;;31.20;69.50;;;;;;4948169;28;19913;-77
2022/10/27 10:41:21;;;;;;;;;;;29.90;70.00;;;;;;4947289;28;19906;-77
2022/10/27 10:44:06;;;;;;;;;;;29.70;71.30;;;;;;4947493;28;19998;-77
2022/10/27 10:46:34;;;;;;;;;;;28.00;73.20;;;;;;4950200;28;19914;-77
2022/10/27 10:49:01;;;;;;;;;;;26.30;77.40;;;;;;4944882;28;19907;-77
2022/10/27 10:51:34;;;;;;;;;;;24.60;82.00;;;;;;4952221;28;19916;-78
2022/10/27 10:54:20;;;;;;;;;;;23.40;86.80;;;;;;4946760;28;19965;-76
2022/10/27 10:56:50;;;;;;;;;;;22.60;90.40;;;;;;4940560;28;19914;-76
2022/10/27 10:59:17;;;;;;;;;;;21.80;92.70;;;;;;4950364;28;20255;-76
2022/10/27 11:02:02;;;;;;;;;;;21.30;95.30;;;;;;4946849;28;19966;-76
2022/10/27 11:04:30;;;;;;;;;;;21.30;97.20;;;;;;4955329;28;19910;-76
2022/10/27 11:07:05;;;;;;;;;;;21.10;98.40;;;;;;4944630;28;20014;-77
2022/10/27 11:12:25;;;;;;;;;;;21.50;98.70;;;;;;4953171;28;19946;-76
2022/10/27 11:14:52;;;;;;;;;;;21.60;98.90;;;;;;4950604;28;19949;-77
2022/10/27 11:17:21;;;;;;;;;;;21.60;98.50;;;;;;4948618;28;19978;-76
2022/10/27 11:19:54;;;;;;;;;;;21.70;98.70;;;;;;4953900;28;19910;-75
2022/10/27 11:22:20;;;;;;;;;;;21.80;99.00;;;;;;4973808;28;19947;-76
2022/10/27 11:24:51;;;;;;;;;;;21.40;99.40;;;;;;4949005;28;20018;-76
2022/10/27 11:27:31;;;;;;;;;;;21.20;99.90;;;;;;4951049;28;20526;-76
2022/10/27 11:30:13;;;;;;;;;;;21.20;99.90;;;;;;4954754;28;19975;-77
2022/10/27 11:32:42;;;;;;;;;;;21.00;99.90;;;;;;4953637;28;20311;-79
2022/10/27 11:35:17;;;;;;;;;;;20.70;99.90;;;;;;4959760;28;20000;-78
2022/10/27 11:37:53;;;;;;;;;;;20.50;99.90;;;;;;4949356;28;20509;-77
2022/10/27 11:40:25;;;;;;;;;;;20.20;99.90;;;;;;4955261;28;19969;-78
2022/10/27 11:43:06;;;;;;;;;;;20.00;99.90;;;;;;4953889;28;19910;-79
2022/10/27 11:45:36;;;;;;;;;;;19.90;99.90;;;;;;4950345;28;19920;-77
2022/10/27 11:48:14;;;;;;;;;;;19.70;99.90;;;;;;4949788;28;19977;-79
2022/10/27 11:50:49;;;;;;;;;;;19.80;99.90;;;;;;4957761;28;19960;-74
2022/10/27 11:53:16;;;;;;;;;;;19.70;99.90;;;;;;4948536;28;19906;-73
2022/10/27 11:55:42;;;;;;;;;;;19.90;99.90;;;;;;4946915;28;20363;-75
2022/10/27 11:58:17;;;;;;;;;;;19.70;99.90;;;;;;4951422;28;19934;-74
2022/10/27 12:01:14;;;;;;;;;;;19.80;99.90;;;;;;4950694;28;19918;-76
2022/10/27 12:03:53;;;;;;;;;;;20.00;99.90;;;;;;4971852;28;20232;-76
2022/10/27 12:06:26;;;;;;;;;;;19.80;99.90;;;;;;4950743;28;20417;-75
2022/10/27 12:09:15;;;;;;;;;;;19.80;99.90;;;;;;4952089;28;20410;-76
2022/10/27 12:12:08;;;;;;;;;;;19.90;99.90;;;;;;4955187;28;20275;-76
2022/10/27 12:14:46;;;;;;;;;;;19.90;99.90;;;;;;4953838;28;19914;-77
2022/10/27 12:17:34;;;;;;;;;;;19.90;99.90;;;;;;4956016;28;20404;-76
2022/10/27 12:20:02;;;;;;;;;;;19.80;99.90;;;;;;4954503;28;19921;-76
2022/10/27 12:22:51;;;;;;;;;;;19.80;99.90;;;;;;4954583;28;19906;-76
2022/10/27 12:25:22;;;;;;;;;;;20.00;99.90;;;;;;4950813;28;20005;-76
2022/10/27 12:27:51;;;;;;;;;;;20.00;99.90;;;;;;4956514;28;19953;-76
2022/10/27 12:30:18;;;;;;;;;;;20.10;99.90;;;;;;4954948;28;20350;-77
2022/10/27 12:32:54;;;;;;;;;;;20.10;99.90;;;;;;4945211;28;19958;-76
2022/10/27 12:35:27;;;;;;;;;;;20.00;99.90;;;;;;4950906;28;19910;-76
2022/10/27 12:38:11;;;;;;;;;;;20.20;99.90;;;;;;4949237;28;19910;-76
2022/10/27 12:40:59;;;;;;;;;;;20.10;99.90;;;;;;4957741;28;19996;-76
2022/10/27 12:43:25;;;;;;;;;;;19.80;99.90;;;;;;4955856;28;19906;-76
2022/10/27 12:46:05;;;;;;;;;;;19.80;99.90;;;;;;4948757;28;20413;-77
2022/10/27 12:48:53;;;;;;;;;;;19.90;99.90;;;;;;4955406;28;19906;-80
2022/10/27 12:51:18;;;;;;;;;;;19.50;99.90;;;;;;4976833;28;19937;-82
2022/10/27 12:53:56;;;;;;;;;;;19.40;99.90;;;;;;4952081;28;19997;-78
2022/10/27 12:56:31;;;;;;;;;;;19.50;99.90;;;;;;4977416;28;20456;-76
2022/10/27 12:59:22;;;;;;;;;;;19.40;99.90;;;;;;4961552;28;20183;-77
2022/10/27 13:01:54;;;;;;;;;;;19.10;99.90;;;;;;4952406;28;19914;-76
2022/10/27 13:04:29;;;;;;;;;;;19.20;99.90;;;;;;4943908;28;19988;-76
2022/10/27 13:06:59;;;;;;;;;;;19.20;99.90;;;;;;4952772;28;19992;-77
2022/10/27 13:09:34;;;;;;;;;;;18.90;99.90;;;;;;4951756;28;20039;-77
2022/10/27 13:12:09;;;;;;;;;;;18.90;99.90;;;;;;4955133;28;19914;-77
2022/10/27 13:14:49;;;;;;;;;;;19.00;99.90;;;;;;4954795;28;20037;-76
2022/10/27 13:17:18;;;;;;;;;;;19.00;99.90;;;;;;4952650;28;19906;-78
2022/10/27 13:19:47;;;;;;;;;;;19.00;99.90;;;;;;4979126;28;20283;-77
2022/10/27 13:22:30;;;;;;;;;;;18.90;99.90;;;;;;4972912;28;19910;-77
2022/10/27 13:25:05;;;;;;;;;;;19.00;99.90;;;;;;4947702;28;20008;-77
2022/10/27 13:27:44;;;;;;;;;;;19.00;99.90;;;;;;4954517;28;19945;-77
2022/10/27 13:30:10;;;;;;;;;;;18.80;99.90;;;;;;4953717;28;19906;-78
2022/10/27 13:32:48;;;;;;;;;;;18.60;99.90;;;;;;4968144;28;19917;-78
2022/10/27 13:35:18;;;;;;;;;;;18.40;99.90;;;;;;4974545;28;19924;-78
2022/10/27 13:37:48;;;;;;;;;;;18.30;99.90;;;;;;4969373;28;19989;-77
2022/10/27 13:40:22;;;;;;;;;;;18.20;99.90;;;;;;4953370;28;19934;-78
2022/10/27 13:42:51;;;;;;;;;;;18.20;99.90;;;;;;4975300;28;19957;-78
2022/10/27 13:45:31;;;;;;;;;;;18.20;99.90;;;;;;4952896;28;19953;-78
2022/10/27 13:48:16;;;;;;;;;;;18.10;99.90;;;;;;4978430;28;19906;-78
2022/10/27 13:50:42;;;;;;;;;;;18.00;99.90;;;;;;4944121;28;19993;-77
2022/10/27 13:53:16;;;;;;;;;;;17.90;99.90;;;;;;4955983;28;19935;-77
2022/10/27 13:55:54;;;;;;;;;;;17.90;99.90;;;;;;4950812;28;20005;-77
2022/10/27 13:58:20;;;;;;;;;;;17.80;99.90;;;;;;4969718;28;19906;-77
2022/10/27 14:01:04;;;;;;;;;;;17.80;99.90;;;;;;4947637;28;19921;-77
2022/10/27 14:03:42;;;;;;;;;;;17.80;99.90;;;;;;4949892;28;19918;-77
2022/10/27 14:06:15;;;;;;;;;;;17.80;99.90;;;;;;4947161;28;19961;-77
2022/10/27 14:08:49;;;;;;;;;;;17.70;99.90;;;;;;4970543;28;19914;-77
2022/10/27 14:11:32;;;;;;;;;;;17.70;99.90;;;;;;4946585;28;20468;-78
2022/10/27 14:14:16;;;;;;;;;;;17.70;99.90;;;;;;4945769;28;19968;-78
2022/10/27 14:16:43;;;;;;;;;;;17.60;99.90;;;;;;4945933;28;19910;-77
2022/10/27 14:19:14;;;;;;;;;;;17.50;99.90;;;;;;4945544;28;20021;-78
2022/10/27 14:21:51;;;;;;;;;;;17.60;99.90;;;;;;4958199;28;19917;-78
2022/10/27 14:24:29;;;;;;;;;;;17.70;99.90;;;;;;4955815;28;19910;-77
2022/10/27 14:27:02;;;;;;;;;;;17.70;99.90;;;;;;4951341;28;20379;-77
2022/10/27 14:29:35;;;;;;;;;;;17.60;99.90;;;;;;4951046;28;19957;-77
2022/10/27 14:32:19;;;;;;;;;;;17.40;99.90;;;;;;4948683;28;19946;-77
2022/10/27 14:34:47;;;;;;;;;;;17.30;99.90;;;;;;4948331;28;19918;-76